createdAt,value
2018-12-05T00:00:48.560Z,1.93
2018-12-05T00:03:18.321Z,1.90
2018-12-05T00:05:47.894Z,1.91
2018-12-05T00:08:30.297Z,1.90
2018-12-05T00:10:59.106Z,1.91
2018-12-05T00:13:28.033Z,1.92
2018-12-05T00:15:57.188Z,1.85
2018-12-05T00:18:28.210Z,1.89
2018-12-05T00:20:58.557Z,1.89
2018-12-05T00:23:31.677Z,1.89
2018-12-05T00:26:00.827Z,1.86
2018-12-05T00:28:29.847Z,1.88
2018-12-05T00:30:59.596Z,1.86
2018-12-05T00:33:28.463Z,1.86
2018-12-05T00:35:58.045Z,1.84
2018-12-05T00:38:27.873Z,1.87
2018-12-05T00:40:56.755Z,1.89
2018-12-05T00:43:26.955Z,1.88
2018-12-05T00:45:56.785Z,1.87
2018-12-05T00:48:27.343Z,1.82
2018-12-05T00:50:56.894Z,1.85
2018-12-05T00:53:25.788Z,1.85
2018-12-05T00:55:54.910Z,1.85
2018-12-05T00:58:24.782Z,1.83
2018-12-05T01:00:54.710Z,1.82
2018-12-05T01:03:24.941Z,1.84
2018-12-05T01:05:53.926Z,1.81
2018-12-05T01:08:23.067Z,1.83
2018-12-05T01:10:51.969Z,1.83
2018-12-05T01:13:21.113Z,1.81
2018-12-05T01:15:50.126Z,1.82
2018-12-05T01:18:21.223Z,1.83
2018-12-05T01:20:50.911Z,1.78
2018-12-05T01:23:20.630Z,1.84
2018-12-05T01:25:49.720Z,1.84
2018-12-05T01:28:49.580Z,1.83
2018-12-05T01:31:19.115Z,1.82
2018-12-05T01:33:48.066Z,1.80
2018-12-05T01:36:17.899Z,1.79
2018-12-05T01:38:47.618Z,1.78
2018-12-05T01:41:16.588Z,1.77
2018-12-05T01:46:34.156Z,1.75
2018-12-05T01:49:03.097Z,1.79
2018-12-05T01:51:32.442Z,1.78
2018-12-05T01:54:01.482Z,1.77
2018-12-05T01:56:30.328Z,1.77
2018-12-05T01:59:00.245Z,1.76
2018-12-05T02:01:29.331Z,1.74
2018-12-05T02:03:58.994Z,1.68
2018-12-05T02:09:27.338Z,1.70
2018-12-05T02:11:56.231Z,1.69
2018-12-05T02:14:26.970Z,1.68
2018-12-05T02:16:56.021Z,1.68
2018-12-05T02:19:26.198Z,1.69
2018-12-05T02:21:55.383Z,1.65
2018-12-05T02:24:24.913Z,1.64
2018-12-05T02:26:54.045Z,1.65
2018-12-05T02:29:27.547Z,1.65
2018-12-05T02:31:56.455Z,1.65
2018-12-05T02:34:25.739Z,1.64
2018-12-05T02:36:54.835Z,1.62
2018-12-05T02:39:24.875Z,1.61
2018-12-05T02:41:53.963Z,1.57
2018-12-05T02:44:22.941Z,1.62
2018-12-05T02:46:52.513Z,1.60
2018-12-05T02:49:21.851Z,1.60
2018-12-05T02:51:51.575Z,1.61
2018-12-05T02:54:20.531Z,1.60
2018-12-05T02:56:49.562Z,1.61
2018-12-05T02:59:19.415Z,1.63
2018-12-05T03:01:49.291Z,1.59
2018-12-05T03:04:19.204Z,1.62
2018-12-05T03:06:48.194Z,1.63
2018-12-05T03:09:17.153Z,1.63
2018-12-05T03:11:47.280Z,1.61
2018-12-05T03:14:16.455Z,1.60
2018-12-05T03:16:45.613Z,1.59
2018-12-05T03:19:15.345Z,1.58
2018-12-05T03:21:44.420Z,1.55
2018-12-05T03:24:14.421Z,1.56
2018-12-05T03:26:43.536Z,1.55
2018-12-05T03:29:13.045Z,1.54
2018-12-05T03:31:41.966Z,1.54
2018-12-05T03:34:11.031Z,1.54
2018-12-05T03:36:40.178Z,1.54
2018-12-05T03:39:11.255Z,1.51
2018-12-05T03:41:40.494Z,1.50
2018-12-05T03:44:09.652Z,1.50
2018-12-05T03:46:39.767Z,1.48
2018-12-05T03:49:09.065Z,1.48
2018-12-05T03:51:38.867Z,1.47
2018-12-05T03:54:08.254Z,1.46
2018-12-05T03:56:37.805Z,1.45
2018-12-05T03:59:08.423Z,1.44
2018-12-05T04:01:38.512Z,1.42
2018-12-05T04:04:08.837Z,1.41
2018-12-05T04:06:38.047Z,1.40
2018-12-05T04:09:08.687Z,1.37
2018-12-05T04:11:38.028Z,1.36
2018-12-05T04:14:08.338Z,1.36
2018-12-05T04:16:45.170Z,1.35
2018-12-05T04:19:15.292Z,1.37
2018-12-05T04:21:44.487Z,1.38
2018-12-05T04:24:14.400Z,1.37
2018-12-05T04:26:43.583Z,1.36
2018-12-05T04:29:13.570Z,1.36
2018-12-05T04:31:43.351Z,1.35
2018-12-05T04:34:13.395Z,1.35
2018-12-05T04:36:43.283Z,1.35
2018-12-05T04:39:12.418Z,1.35
2018-12-05T04:41:42.245Z,1.35
2018-12-05T04:44:11.700Z,1.29
2018-12-05T04:46:41.639Z,1.33
2018-12-05T04:49:10.894Z,1.30
2018-12-05T04:51:42.137Z,1.31
2018-12-05T04:54:11.308Z,1.31
2018-12-05T04:56:40.547Z,1.30
2018-12-05T04:59:10.509Z,1.29
2018-12-05T05:01:40.685Z,1.27
2018-12-05T05:04:11.112Z,1.25
2018-12-05T05:09:28.772Z,1.23
2018-12-05T05:11:58.004Z,1.21
2018-12-05T05:14:27.432Z,1.17
2018-12-05T05:16:57.175Z,1.15
2018-12-05T05:19:27.968Z,1.12
2018-12-05T05:21:57.821Z,1.09
2018-12-05T05:24:28.044Z,1.06
2018-12-05T05:26:57.585Z,1.07
2018-12-05T05:29:27.543Z,1.06
2018-12-05T05:31:56.833Z,1.06
2018-12-05T05:34:26.300Z,1.07
2018-12-05T05:36:56.515Z,1.08
2018-12-05T05:39:27.123Z,1.08
2018-12-05T05:41:58.572Z,1.08
2018-12-05T05:44:27.753Z,1.04
2018-12-05T05:46:59.716Z,1.08
2018-12-05T05:49:29.431Z,1.10
2018-12-05T05:51:59.977Z,1.08
2018-12-05T05:54:29.254Z,1.07
2018-12-05T05:57:00.004Z,1.04
2018-12-05T05:59:30.143Z,1.03
2018-12-05T06:02:00.584Z,1.01
2018-12-05T06:07:31.916Z,0.95
2018-12-05T06:10:01.525Z,0.91
2018-12-05T06:12:30.823Z,0.89
2018-12-05T06:15:03.423Z,0.85
2018-12-05T06:17:33.527Z,0.82
2018-12-05T06:20:06.860Z,0.79
2018-12-05T06:22:36.426Z,0.77
2018-12-05T06:25:10.647Z,0.70
2018-12-05T06:27:40.963Z,0.65
2018-12-05T06:30:11.153Z,0.57
2018-12-05T06:32:43.860Z,0.51
2018-12-05T06:35:13.272Z,0.46
2018-12-05T06:37:46.822Z,0.41
2018-12-05T06:40:18.822Z,0.36
2018-12-05T06:42:49.554Z,0.33
2018-12-05T06:45:19.163Z,0.34
2018-12-05T06:47:48.548Z,0.37
2018-12-05T06:50:19.326Z,0.34
2018-12-05T06:52:49.089Z,0.43
2018-12-05T06:58:10.532Z,0.43
2018-12-05T07:00:40.572Z,0.40
2018-12-05T07:03:11.050Z,0.35
2018-12-05T07:05:40.998Z,0.26
2018-12-05T07:08:12.030Z,0.20
2018-12-05T07:10:41.802Z,0.15
2018-12-05T07:13:14.186Z,0.10
2018-12-05T07:15:47.319Z,0.05
2018-12-05T07:18:34.188Z,0.04
2018-12-05T07:21:05.449Z,0.00
2018-12-05T07:23:42.264Z,0.00
2018-12-05T07:29:16.084Z,0.05
2018-12-05T07:31:49.336Z,0.07
2018-12-05T07:34:18.873Z,0.11
2018-12-05T07:36:51.662Z,0.14
2018-12-05T07:39:22.453Z,0.18
2018-12-05T07:41:52.506Z,0.23
2018-12-05T07:44:23.360Z,0.26
2018-12-05T07:46:53.722Z,0.32
2018-12-05T07:49:24.045Z,0.36
2018-12-05T07:51:54.030Z,0.36
2018-12-05T07:54:27.206Z,0.37
2018-12-05T07:56:56.500Z,0.40
2018-12-05T07:59:26.919Z,0.44
2018-12-05T08:01:57.353Z,0.48
2018-12-05T08:04:27.826Z,0.48
2018-12-05T08:06:57.135Z,0.51
2018-12-05T08:09:26.597Z,0.51
2018-12-05T08:11:55.945Z,0.51
2018-12-05T08:14:25.995Z,0.51
2018-12-05T08:16:56.952Z,0.51
2018-12-05T08:19:27.139Z,0.53
2018-12-05T08:24:47.930Z,0.53
2018-12-05T08:27:18.287Z,0.56
2018-12-05T08:29:48.126Z,0.58
2018-12-05T08:32:17.700Z,0.61
2018-12-05T08:34:47.306Z,0.62
2018-12-05T08:37:16.671Z,0.67
2018-12-05T08:39:47.149Z,0.71
2018-12-05T08:42:16.429Z,0.73
2018-12-05T08:44:46.041Z,0.75
2018-12-05T08:47:15.440Z,0.78
2018-12-05T08:49:44.853Z,0.84
2018-12-05T08:52:14.679Z,0.99
2018-12-05T08:54:44.506Z,1.06
2018-12-05T08:57:14.324Z,1.20
2018-12-05T08:59:43.318Z,1.25
2018-12-05T09:02:13.680Z,1.27
2018-12-05T09:04:43.392Z,1.31
2018-12-05T09:07:12.763Z,1.33
2018-12-05T09:09:41.691Z,1.33
2018-12-05T09:12:10.796Z,1.34
2018-12-05T09:14:39.849Z,1.32
2018-12-05T09:17:09.305Z,1.33
2018-12-05T09:19:39.304Z,1.32
2018-12-05T09:22:08.292Z,1.38
2018-12-05T09:24:37.850Z,1.38
2018-12-05T09:27:07.052Z,1.45
2018-12-05T09:29:37.722Z,1.46
2018-12-05T09:32:07.028Z,1.50
2018-12-05T09:34:38.199Z,1.56
2018-12-05T09:37:07.983Z,1.61
2018-12-05T09:39:37.823Z,1.66
2018-12-05T09:42:06.919Z,1.69
2018-12-05T09:44:36.019Z,1.74
2018-12-05T09:47:04.968Z,1.78
2018-12-05T09:49:33.896Z,1.80
2018-12-05T09:52:03.985Z,1.82
2018-12-05T09:54:32.855Z,1.84
2018-12-05T09:57:02.868Z,1.84
2018-12-05T09:59:31.906Z,1.86
2018-12-05T10:02:01.419Z,1.91
2018-12-05T10:07:12.004Z,1.99
2018-12-05T10:09:40.826Z,2.02
2018-12-05T10:12:09.651Z,2.04
2018-12-05T10:14:39.786Z,2.06
2018-12-05T10:17:08.651Z,2.05
2018-12-05T10:19:38.367Z,2.12
2018-12-05T10:22:08.209Z,2.13
2018-12-05T10:24:37.712Z,2.19
2018-12-05T10:30:39.014Z,2.30
2018-12-05T10:33:07.957Z,2.33
2018-12-05T10:35:36.826Z,2.34
2018-12-05T10:38:05.605Z,2.34
2018-12-05T10:40:35.214Z,2.34
2018-12-05T10:43:03.968Z,2.35
2018-12-05T10:45:32.710Z,2.35
2018-12-05T10:48:01.545Z,2.40
2018-12-05T10:50:31.765Z,2.41
2018-12-05T10:53:01.202Z,2.42
2018-12-05T10:55:29.970Z,2.42
2018-12-05T10:57:59.393Z,2.48
2018-12-05T11:00:33.381Z,2.50
2018-12-05T11:03:08.266Z,2.50
2018-12-05T11:05:43.181Z,2.48
2018-12-05T11:08:17.146Z,2.51
2018-12-05T11:10:50.989Z,2.51
2018-12-05T11:13:25.108Z,2.54
2018-12-05T11:15:59.298Z,2.58
2018-12-05T11:18:33.739Z,2.57
2018-12-05T11:21:08.030Z,2.57
2018-12-05T11:23:42.849Z,2.57
2018-12-05T11:26:15.358Z,2.59
2018-12-05T11:28:45.093Z,2.60
2018-12-05T11:31:13.926Z,2.59
2018-12-05T11:33:43.612Z,2.48
2018-12-05T11:36:12.402Z,2.55
2018-12-05T11:38:41.117Z,2.53
2018-12-05T11:41:10.849Z,2.55
2018-12-05T11:43:39.618Z,2.57
2018-12-05T11:46:08.495Z,2.54
2018-12-05T11:48:37.502Z,2.59
2018-12-05T11:51:06.869Z,2.55
2018-12-05T11:53:35.805Z,2.60
2018-12-05T11:56:04.726Z,2.62
2018-12-05T11:58:33.579Z,2.62
2018-12-05T12:01:02.355Z,2.63
2018-12-05T12:03:31.937Z,2.62
2018-12-05T12:06:00.705Z,2.55
2018-12-05T12:08:29.453Z,2.57
2018-12-05T12:10:58.549Z,2.55
2018-12-05T12:13:27.284Z,2.53
2018-12-05T12:15:56.306Z,2.51
2018-12-05T12:18:25.339Z,2.48
2018-12-05T12:20:54.658Z,2.49
2018-12-05T12:23:24.419Z,2.49
2018-12-05T12:25:53.262Z,2.45
2018-12-05T12:28:22.704Z,2.43
2018-12-05T12:30:52.088Z,2.53
2018-12-05T12:33:20.843Z,2.72
2018-12-05T12:38:42.946Z,2.92
2018-12-05T12:41:12.231Z,3.04
2018-12-05T12:43:41.000Z,3.17
2018-12-05T12:46:09.716Z,3.21
2018-12-05T12:48:39.530Z,3.08
2018-12-05T12:51:09.250Z,2.92
2018-12-05T12:53:38.202Z,2.75
2018-12-05T12:56:07.246Z,2.66
2018-12-05T12:58:36.203Z,2.56
2018-12-05T13:01:05.010Z,2.46
2018-12-05T13:03:34.432Z,2.39
2018-12-05T13:06:03.158Z,2.31
2018-12-05T13:08:31.869Z,2.27
2018-12-05T13:11:00.652Z,2.20
2018-12-05T13:13:29.353Z,2.18
2018-12-05T13:15:58.204Z,2.12
2018-12-05T13:18:27.559Z,2.06
2018-12-05T13:20:57.763Z,2.02
2018-12-05T13:23:28.110Z,1.97
2018-12-05T13:25:57.085Z,1.93
2018-12-05T13:28:27.113Z,1.89
2018-12-05T13:30:56.533Z,1.83
2018-12-05T13:33:25.357Z,1.73
2018-12-05T13:35:56.408Z,1.75
2018-12-05T13:38:25.340Z,1.67
2018-12-05T13:40:54.952Z,1.59
2018-12-05T13:43:23.839Z,1.56
2018-12-05T13:45:53.252Z,1.52
2018-12-05T13:48:22.097Z,1.47
2018-12-05T13:50:53.505Z,1.42
2018-12-05T13:53:22.364Z,1.37
2018-12-05T13:55:51.171Z,1.36
2018-12-05T13:58:20.243Z,1.34
2018-12-05T14:00:49.444Z,1.25
2018-12-05T14:03:18.992Z,1.21
2018-12-05T14:05:47.858Z,1.13
2018-12-05T14:08:16.776Z,1.05
2018-12-05T14:10:45.660Z,0.98
2018-12-05T14:13:14.625Z,0.93
2018-12-05T14:15:43.712Z,0.89
2018-12-05T14:18:12.745Z,0.88
2018-12-05T14:20:43.009Z,0.85
2018-12-05T14:23:12.450Z,0.83
2018-12-05T14:25:41.306Z,0.82
2018-12-05T14:28:10.921Z,0.81
2018-12-05T14:30:40.435Z,0.78
2018-12-05T14:33:09.375Z,0.76
2018-12-05T14:35:38.931Z,0.73
2018-12-05T14:38:09.061Z,0.70
2018-12-05T14:40:38.544Z,0.69
2018-12-05T14:43:10.787Z,0.66
2018-12-05T14:45:39.792Z,0.63
2018-12-05T14:48:08.966Z,0.63
2018-12-05T14:50:40.617Z,0.62
2018-12-05T14:53:09.446Z,0.58
2018-12-05T14:55:38.918Z,0.55
2018-12-05T15:00:54.765Z,0.47
2018-12-05T15:03:24.427Z,0.42
2018-12-05T15:05:53.446Z,0.38
2018-12-05T15:08:26.362Z,0.35
2018-12-05T15:10:55.543Z,0.29
2018-12-05T15:13:24.957Z,0.25
2018-12-05T15:15:54.975Z,0.22
2018-12-05T15:18:24.515Z,0.19
2018-12-05T15:20:54.246Z,0.18
2018-12-05T15:23:25.810Z,0.16
2018-12-05T15:25:54.849Z,0.15
2018-12-05T15:28:24.498Z,0.15
2018-12-05T15:30:53.910Z,0.15
2018-12-05T15:33:23.483Z,0.14
2018-12-05T15:35:52.377Z,0.11
2018-12-05T15:38:21.173Z,0.11
2018-12-05T15:40:50.654Z,0.11
2018-12-05T15:43:20.312Z,0.10
2018-12-05T15:45:49.348Z,0.07
2018-12-05T15:48:20.714Z,0.08
2018-12-05T15:50:51.000Z,0.07
2018-12-05T15:53:20.227Z,0.06
2018-12-05T15:55:49.452Z,0.06
2018-12-05T15:58:18.465Z,0.06
2018-12-05T16:00:48.181Z,0.06
2018-12-05T16:03:17.883Z,0.06
2018-12-05T16:05:46.900Z,0.06
2018-12-05T16:08:16.020Z,0.09
2018-12-05T16:10:45.121Z,0.09
2018-12-05T16:13:14.323Z,0.09
2018-12-05T16:15:44.358Z,0.08
2018-12-05T16:18:13.592Z,0.09
2018-12-05T16:20:43.605Z,0.10
2018-12-05T16:23:13.617Z,0.09
2018-12-05T16:25:42.515Z,0.08
2018-12-05T16:28:12.275Z,0.08
2018-12-05T16:30:41.997Z,0.09
2018-12-05T16:33:11.031Z,0.09
2018-12-05T16:35:40.383Z,0.06
2018-12-05T16:38:10.756Z,0.11
2018-12-05T16:40:40.317Z,0.11
2018-12-05T16:43:10.491Z,0.13
2018-12-05T16:45:39.835Z,0.15
2018-12-05T16:48:09.498Z,0.15
2018-12-05T16:50:40.022Z,0.12
2018-12-05T16:53:09.425Z,0.09
2018-12-05T16:55:38.880Z,0.11
2018-12-05T16:58:09.181Z,0.12
2018-12-05T17:00:39.533Z,0.12
2018-12-05T17:03:09.606Z,0.10
2018-12-05T17:05:38.886Z,0.11
2018-12-05T17:08:08.123Z,0.08
2018-12-05T17:10:37.975Z,0.08
2018-12-05T17:13:07.434Z,0.09
2018-12-05T17:15:37.043Z,0.10
2018-12-05T17:18:06.415Z,0.09
2018-12-05T17:20:36.883Z,0.09
2018-12-05T17:23:08.029Z,0.09
2018-12-05T17:25:37.054Z,0.11
2018-12-05T17:28:06.835Z,0.11
2018-12-05T17:30:37.347Z,0.12
2018-12-05T17:33:08.968Z,0.11
2018-12-05T17:35:41.132Z,0.11
2018-12-05T17:38:11.289Z,0.12
2018-12-05T17:40:40.549Z,0.11
2018-12-05T17:43:12.087Z,0.12
2018-12-05T17:45:40.912Z,0.11
2018-12-05T17:48:10.016Z,0.11
2018-12-05T17:50:39.611Z,0.13
2018-12-05T17:53:10.775Z,0.14
2018-12-05T17:55:40.692Z,0.14
2018-12-05T17:58:14.434Z,0.14
2018-12-05T18:00:43.900Z,0.15
2018-12-05T18:03:13.333Z,0.15
2018-12-05T18:05:43.605Z,0.15
2018-12-05T18:08:12.573Z,0.18
2018-12-05T18:10:41.682Z,0.18
2018-12-05T18:13:12.847Z,0.22
2018-12-05T18:15:42.507Z,0.20
2018-12-05T18:18:11.623Z,0.21
2018-12-05T18:20:41.296Z,0.21
2018-12-05T18:23:11.047Z,0.23
2018-12-05T18:25:41.458Z,0.25
2018-12-05T18:28:11.062Z,0.27
2018-12-05T18:30:40.781Z,0.28
2018-12-05T18:33:09.672Z,0.30
2018-12-05T18:35:40.727Z,0.30
2018-12-05T18:38:10.449Z,0.31
2018-12-05T18:40:41.518Z,0.31
2018-12-05T18:43:10.862Z,0.32
2018-12-05T18:45:42.086Z,0.33
2018-12-05T18:48:11.129Z,0.32
2018-12-05T18:50:40.378Z,0.32
2018-12-05T18:53:09.516Z,0.30
2018-12-05T18:55:41.525Z,0.28
2018-12-05T18:58:10.414Z,0.29
2018-12-05T19:00:42.095Z,0.28
2018-12-05T19:03:12.091Z,0.29
2018-12-05T19:05:41.437Z,0.30
2018-12-05T19:08:10.469Z,0.31
2018-12-05T19:10:40.342Z,0.33
2018-12-05T19:13:09.472Z,0.31
2018-12-05T19:15:38.724Z,0.36
2018-12-05T19:18:08.063Z,0.37
2018-12-05T19:20:38.623Z,0.40
2018-12-05T19:23:08.596Z,0.42
2018-12-05T19:25:37.660Z,0.44
2018-12-05T19:28:07.428Z,0.47
2018-12-05T19:30:37.402Z,0.48
2018-12-05T19:33:07.179Z,0.50
2018-12-05T19:35:35.988Z,0.52
2018-12-05T19:38:04.805Z,0.56
2018-12-05T19:40:34.358Z,0.59
2018-12-05T19:43:03.814Z,0.64
2018-12-05T19:45:32.779Z,0.68
2018-12-05T19:48:02.204Z,0.71
2018-12-05T19:50:31.738Z,0.79
2018-12-05T19:53:00.609Z,0.84
2018-12-05T19:55:29.440Z,0.92
2018-12-05T19:57:58.387Z,0.99
2018-12-05T20:00:27.835Z,1.05
2018-12-05T20:02:57.770Z,1.12
2018-12-05T20:05:26.627Z,1.18
2018-12-05T20:07:55.459Z,1.22
2018-12-05T20:10:24.311Z,1.26
2018-12-05T20:12:53.005Z,1.30
2018-12-05T20:15:22.005Z,1.32
2018-12-05T20:17:50.801Z,1.34
2018-12-05T20:21:23.504Z,1.33
2018-12-05T20:23:52.823Z,1.36
2018-12-05T20:26:21.660Z,1.36
2018-12-05T20:28:51.083Z,1.37
2018-12-05T20:31:20.000Z,1.37
2018-12-05T20:33:48.771Z,1.42
2018-12-05T20:36:17.921Z,1.43
2018-12-05T20:38:46.770Z,1.42
2018-12-05T20:41:16.355Z,1.43
2018-12-05T20:43:45.094Z,1.45
2018-12-05T20:46:14.834Z,1.47
2018-12-05T20:48:44.156Z,1.46
2018-12-05T20:51:13.634Z,1.46
2018-12-05T20:53:42.363Z,1.48
2018-12-05T20:56:11.090Z,1.51
2018-12-05T20:58:39.997Z,1.56
2018-12-05T21:01:09.450Z,1.63
2018-12-05T21:03:39.031Z,1.71
2018-12-05T21:06:07.924Z,1.77
2018-12-05T21:08:38.161Z,1.85
2018-12-05T21:11:07.199Z,1.92
2018-12-05T21:13:36.198Z,1.96
2018-12-05T21:16:05.202Z,1.99
2018-12-05T21:18:35.296Z,1.97
2018-12-05T21:21:04.209Z,1.96
2018-12-05T21:23:33.471Z,1.93
2018-12-05T21:26:02.302Z,1.90
2018-12-05T21:28:31.827Z,1.88
2018-12-05T21:31:01.122Z,1.84
2018-12-05T21:33:29.860Z,1.79
2018-12-05T21:35:59.556Z,1.73
2018-12-05T21:38:28.351Z,1.64
2018-12-05T21:40:57.932Z,1.61
2018-12-05T21:43:28.122Z,1.56
2018-12-05T21:45:58.915Z,1.51
2018-12-05T21:48:28.367Z,1.46
2018-12-05T21:50:57.932Z,1.42
2018-12-05T21:53:26.691Z,1.40
2018-12-05T21:55:55.509Z,1.37
2018-12-05T21:58:24.307Z,1.36
2018-12-05T22:00:53.705Z,1.34
2018-12-05T22:03:23.188Z,1.31
2018-12-05T22:05:52.470Z,1.32
2018-12-05T22:08:21.239Z,1.31
2018-12-05T22:10:49.995Z,1.28
2018-12-05T22:13:18.792Z,1.25
2018-12-05T22:15:49.072Z,1.25
2018-12-05T22:18:17.850Z,1.25
2018-12-05T22:20:47.241Z,1.26
2018-12-05T22:23:16.983Z,1.27
2018-12-05T22:25:46.233Z,1.28
2018-12-05T22:28:15.679Z,1.31
2018-12-05T22:30:44.511Z,1.32
2018-12-05T22:33:13.551Z,1.33
2018-12-05T22:35:42.390Z,1.34
2018-12-05T22:38:11.174Z,1.35
2018-12-05T22:40:40.307Z,1.36
2018-12-05T22:43:09.316Z,1.35
2018-12-05T22:45:39.074Z,1.31
2018-12-05T22:48:09.539Z,1.35
2018-12-05T22:50:39.322Z,1.36
2018-12-05T22:53:08.299Z,1.37
2018-12-05T22:55:39.177Z,1.38
2018-12-05T22:58:08.212Z,1.41
2018-12-05T23:00:37.779Z,1.46
2018-12-05T23:03:09.609Z,1.48
2018-12-05T23:05:38.684Z,1.52
2018-12-05T23:08:07.768Z,1.57
2018-12-05T23:10:36.971Z,1.60
2018-12-05T23:13:05.814Z,1.62
2018-12-05T23:15:34.693Z,1.58
2018-12-05T23:18:03.569Z,1.64
2018-12-05T23:20:33.109Z,1.66
2018-12-05T23:23:02.619Z,1.68
2018-12-05T23:25:31.478Z,1.70
2018-12-05T23:28:00.270Z,1.74
2018-12-05T23:30:29.086Z,1.79
2018-12-05T23:32:58.637Z,1.81
2018-12-05T23:35:27.571Z,1.85
2018-12-05T23:37:56.425Z,1.88
2018-12-05T23:40:26.509Z,1.92
2018-12-05T23:42:55.638Z,1.93
2018-12-05T23:45:25.314Z,1.96
2018-12-05T23:47:55.282Z,2.00
2018-12-05T23:50:25.477Z,2.03
2018-12-05T23:52:54.571Z,2.08
2018-12-05T23:55:23.382Z,2.12
2018-12-05T23:57:52.322Z,2.12
